sensor_id;sensor_type;location;lat;lon;timestamp;P1;durP1;ratioP1;P2;durP2;ratioP2
14139;SDS011;7150;53.514;9.988;2022-09-24T00:03:35;4.83;;;3.63;;
14139;SDS011;7150;53.514;9.988;2022-09-24T00:06:01;4.03;;;3.20;;
14139;SDS011;7150;53.514;9.988;2022-09-24T00:08:28;4.77;;;3.50;;
14139;SDS011;7150;53.514;9.988;2022-09-24T00:10:54;3.63;;;3.27;;
14139;SDS011;7150;53.514;9.988;2022-09-24T00:13:21;4.53;;;3.20;;
14139;SDS011;7150;53.514;9.988;2022-09-24T00:15:48;4.90;;;3.70;;
14139;SDS011;7150;53.514;9.988;2022-09-24T00:18:15;3.80;;;3.37;;
14139;SDS011;7150;53.514;9.988;2022-09-24T00:20:42;3.93;;;3.27;;
14139;SDS011;7150;53.514;9.988;2022-09-24T00:23:09;3.67;;;3.23;;
14139;SDS011;7150;53.514;9.988;2022-09-24T00:25:44;3.37;;;2.90;;
14139;SDS011;7150;53.514;9.988;2022-09-24T00:28:29;4.17;;;3.13;;
14139;SDS011;7150;53.514;9.988;2022-09-24T00:30:55;4.13;;;3.30;;
14139;SDS011;7150;53.514;9.988;2022-09-24T00:33:23;3.80;;;3.33;;
14139;SDS011;7150;53.514;9.988;2022-09-24T00:35:56;3.77;;;3.30;;
14139;SDS011;7150;53.514;9.988;2022-09-24T00:38:27;3.70;;;3.23;;
14139;SDS011;7150;53.514;9.988;2022-09-24T00:40:53;3.63;;;3.27;;
14139;SDS011;7150;53.514;9.988;2022-09-24T00:43:20;4.70;;;3.60;;
14139;SDS011;7150;53.514;9.988;2022-09-24T00:45:54;5.07;;;3.47;;
14139;SDS011;7150;53.514;9.988;2022-09-24T00:48:27;3.40;;;3.03;;
14139;SDS011;7150;53.514;9.988;2022-09-24T00:50:53;5.93;;;3.63;;
14139;SDS011;7150;53.514;9.988;2022-09-24T00:53:19;3.53;;;3.17;;
14139;SDS011;7150;53.514;9.988;2022-09-24T00:55:50;3.63;;;3.00;;
14139;SDS011;7150;53.514;9.988;2022-09-24T00:58:18;3.37;;;2.80;;
14139;SDS011;7150;53.514;9.988;2022-09-24T01:00:45;3.53;;;3.03;;
14139;SDS011;7150;53.514;9.988;2022-09-24T01:03:13;4.00;;;2.80;;
14139;SDS011;7150;53.514;9.988;2022-09-24T01:05:40;5.87;;;3.30;;
14139;SDS011;7150;53.514;9.988;2022-09-24T01:08:08;3.37;;;3.07;;
14139;SDS011;7150;53.514;9.988;2022-09-24T01:13:50;4.10;;;2.63;;
14139;SDS011;7150;53.514;9.988;2022-09-24T01:24:57;3.77;;;2.80;;
14139;SDS011;7150;53.514;9.988;2022-09-24T01:27:51;3.83;;;3.10;;
14139;SDS011;7150;53.514;9.988;2022-09-24T01:30:34;4.23;;;3.27;;
14139;SDS011;7150;53.514;9.988;2022-09-24T01:33:03;4.30;;;3.53;;
14139;SDS011;7150;53.514;9.988;2022-09-24T01:35:40;4.23;;;3.50;;
14139;SDS011;7150;53.514;9.988;2022-09-24T01:38:10;4.33;;;3.33;;
14139;SDS011;7150;53.514;9.988;2022-09-24T01:40:40;3.97;;;3.53;;
14139;SDS011;7150;53.514;9.988;2022-09-24T01:43:07;4.00;;;3.10;;
14139;SDS011;7150;53.514;9.988;2022-09-24T01:45:35;5.40;;;3.47;;
14139;SDS011;7150;53.514;9.988;2022-09-24T01:48:03;5.47;;;3.60;;
14139;SDS011;7150;53.514;9.988;2022-09-24T01:50:31;5.43;;;3.93;;
14139;SDS011;7150;53.514;9.988;2022-09-24T01:53:15;6.27;;;3.90;;
14139;SDS011;7150;53.514;9.988;2022-09-24T01:55:49;5.53;;;4.07;;
14139;SDS011;7150;53.514;9.988;2022-09-24T01:58:21;5.93;;;4.40;;
14139;SDS011;7150;53.514;9.988;2022-09-24T02:00:52;6.83;;;4.00;;
14139;SDS011;7150;53.514;9.988;2022-09-24T02:03:28;6.53;;;4.03;;
14139;SDS011;7150;53.514;9.988;2022-09-24T02:06:02;5.63;;;4.80;;
14139;SDS011;7150;53.514;9.988;2022-09-24T02:08:35;5.73;;;4.60;;
14139;SDS011;7150;53.514;9.988;2022-09-24T02:11:14;5.50;;;4.63;;
14139;SDS011;7150;53.514;9.988;2022-09-24T02:16:40;7.07;;;4.50;;
14139;SDS011;7150;53.514;9.988;2022-09-24T02:19:14;7.10;;;4.97;;
14139;SDS011;7150;53.514;9.988;2022-09-24T02:21:43;6.37;;;5.03;;
14139;SDS011;7150;53.514;9.988;2022-09-24T02:24:14;7.10;;;5.13;;
14139;SDS011;7150;53.514;9.988;2022-09-24T02:26:43;7.23;;;5.00;;
14139;SDS011;7150;53.514;9.988;2022-09-24T02:29:09;8.50;;;5.23;;
14139;SDS011;7150;53.514;9.988;2022-09-24T02:31:46;7.17;;;5.20;;
14139;SDS011;7150;53.514;9.988;2022-09-24T02:34:24;6.37;;;5.40;;
14139;SDS011;7150;53.514;9.988;2022-09-24T02:36:59;8.13;;;5.30;;
14139;SDS011;7150;53.514;9.988;2022-09-24T02:39:29;8.60;;;5.33;;
14139;SDS011;7150;53.514;9.988;2022-09-24T02:41:55;8.10;;;5.00;;
14139;SDS011;7150;53.514;9.988;2022-09-24T02:44:23;7.67;;;5.17;;
14139;SDS011;7150;53.514;9.988;2022-09-24T02:46:49;6.47;;;4.90;;
14139;SDS011;7150;53.514;9.988;2022-09-24T02:49:15;6.87;;;5.20;;
14139;SDS011;7150;53.514;9.988;2022-09-24T02:51:41;7.47;;;5.23;;
14139;SDS011;7150;53.514;9.988;2022-09-24T02:54:07;6.90;;;4.90;;
14139;SDS011;7150;53.514;9.988;2022-09-24T02:56:33;6.80;;;5.37;;
14139;SDS011;7150;53.514;9.988;2022-09-24T02:58:59;7.87;;;5.20;;
14139;SDS011;7150;53.514;9.988;2022-09-24T03:01:26;8.93;;;6.13;;
14139;SDS011;7150;53.514;9.988;2022-09-24T03:03:53;6.53;;;4.97;;
14139;SDS011;7150;53.514;9.988;2022-09-24T03:06:18;8.83;;;5.40;;
14139;SDS011;7150;53.514;9.988;2022-09-24T03:08:44;6.40;;;5.03;;
14139;SDS011;7150;53.514;9.988;2022-09-24T03:11:11;7.37;;;5.40;;
14139;SDS011;7150;53.514;9.988;2022-09-24T03:13:37;7.90;;;5.93;;
14139;SDS011;7150;53.514;9.988;2022-09-24T03:16:04;7.73;;;5.27;;
14139;SDS011;7150;53.514;9.988;2022-09-24T03:18:30;6.57;;;5.30;;
14139;SDS011;7150;53.514;9.988;2022-09-24T03:21:00;7.20;;;5.47;;
14139;SDS011;7150;53.514;9.988;2022-09-24T03:23:28;8.17;;;4.90;;
14139;SDS011;7150;53.514;9.988;2022-09-24T03:25:53;8.13;;;5.70;;
14139;SDS011;7150;53.514;9.988;2022-09-24T03:28:19;7.40;;;5.77;;
14139;SDS011;7150;53.514;9.988;2022-09-24T03:30:45;6.60;;;5.10;;
14139;SDS011;7150;53.514;9.988;2022-09-24T03:33:27;9.33;;;6.57;;
14139;SDS011;7150;53.514;9.988;2022-09-24T03:35:55;6.97;;;5.37;;
14139;SDS011;7150;53.514;9.988;2022-09-24T03:38:23;11.17;;;6.53;;
14139;SDS011;7150;53.514;9.988;2022-09-24T03:40:49;9.33;;;6.00;;
14139;SDS011;7150;53.514;9.988;2022-09-24T03:43:15;8.17;;;6.27;;
14139;SDS011;7150;53.514;9.988;2022-09-24T03:45:40;8.43;;;5.73;;
14139;SDS011;7150;53.514;9.988;2022-09-24T03:48:06;8.77;;;5.90;;
14139;SDS011;7150;53.514;9.988;2022-09-24T03:50:34;10.23;;;6.97;;
14139;SDS011;7150;53.514;9.988;2022-09-24T03:53:01;8.33;;;7.00;;
14139;SDS011;7150;53.514;9.988;2022-09-24T03:55:26;8.20;;;5.50;;
14139;SDS011;7150;53.514;9.988;2022-09-24T03:57:52;8.83;;;5.60;;
14139;SDS011;7150;53.514;9.988;2022-09-24T04:00:17;7.23;;;5.17;;
14139;SDS011;7150;53.514;9.988;2022-09-24T04:02:43;7.17;;;5.47;;
14139;SDS011;7150;53.514;9.988;2022-09-24T04:05:09;6.43;;;5.07;;
14139;SDS011;7150;53.514;9.988;2022-09-24T04:07:34;6.53;;;4.50;;
14139;SDS011;7150;53.514;9.988;2022-09-24T04:10:00;6.20;;;4.87;;
14139;SDS011;7150;53.514;9.988;2022-09-24T04:12:26;5.70;;;4.53;;
14139;SDS011;7150;53.514;9.988;2022-09-24T04:14:51;6.30;;;4.50;;
14139;SDS011;7150;53.514;9.988;2022-09-24T04:17:17;7.60;;;5.47;;
14139;SDS011;7150;53.514;9.988;2022-09-24T04:19:42;6.63;;;5.10;;
14139;SDS011;7150;53.514;9.988;2022-09-24T04:22:07;6.47;;;5.17;;
14139;SDS011;7150;53.514;9.988;2022-09-24T04:24:33;9.00;;;6.10;;
14139;SDS011;7150;53.514;9.988;2022-09-24T04:26:58;7.13;;;5.37;;
14139;SDS011;7150;53.514;9.988;2022-09-24T04:29:24;7.00;;;5.40;;
14139;SDS011;7150;53.514;9.988;2022-09-24T04:31:49;7.37;;;5.50;;
14139;SDS011;7150;53.514;9.988;2022-09-24T04:34:15;6.87;;;5.00;;
14139;SDS011;7150;53.514;9.988;2022-09-24T04:36:41;7.87;;;5.53;;
14139;SDS011;7150;53.514;9.988;2022-09-24T04:39:07;6.53;;;5.30;;
14139;SDS011;7150;53.514;9.988;2022-09-24T04:41:33;6.73;;;5.50;;
14139;SDS011;7150;53.514;9.988;2022-09-24T04:43:59;9.80;;;6.33;;
14139;SDS011;7150;53.514;9.988;2022-09-24T04:46:24;7.63;;;5.50;;
14139;SDS011;7150;53.514;9.988;2022-09-24T04:48:50;7.50;;;5.43;;
14139;SDS011;7150;53.514;9.988;2022-09-24T04:51:15;9.87;;;4.97;;
14139;SDS011;7150;53.514;9.988;2022-09-24T04:53:43;7.37;;;6.20;;
14139;SDS011;7150;53.514;9.988;2022-09-24T04:56:11;8.67;;;5.40;;
14139;SDS011;7150;53.514;9.988;2022-09-24T04:58:37;6.73;;;4.70;;
14139;SDS011;7150;53.514;9.988;2022-09-24T05:01:02;6.33;;;5.30;;
14139;SDS011;7150;53.514;9.988;2022-09-24T05:03:28;6.60;;;5.20;;
14139;SDS011;7150;53.514;9.988;2022-09-24T05:05:54;5.87;;;4.70;;
14139;SDS011;7150;53.514;9.988;2022-09-24T05:08:20;6.90;;;5.53;;
14139;SDS011;7150;53.514;9.988;2022-09-24T05:10:46;6.93;;;5.77;;
14139;SDS011;7150;53.514;9.988;2022-09-24T05:13:11;6.43;;;5.67;;
14139;SDS011;7150;53.514;9.988;2022-09-24T05:15:37;6.93;;;5.73;;
14139;SDS011;7150;53.514;9.988;2022-09-24T05:18:02;7.10;;;5.67;;
14139;SDS011;7150;53.514;9.988;2022-09-24T05:20:30;6.73;;;5.53;;
14139;SDS011;7150;53.514;9.988;2022-09-24T05:22:56;7.20;;;5.83;;
14139;SDS011;7150;53.514;9.988;2022-09-24T05:25:21;6.33;;;5.20;;
14139;SDS011;7150;53.514;9.988;2022-09-24T05:27:48;6.70;;;5.53;;
14139;SDS011;7150;53.514;9.988;2022-09-24T05:30:18;6.97;;;5.53;;
14139;SDS011;7150;53.514;9.988;2022-09-24T05:32:45;6.90;;;5.13;;
14139;SDS011;7150;53.514;9.988;2022-09-24T05:35:16;6.53;;;5.80;;
14139;SDS011;7150;53.514;9.988;2022-09-24T05:37:46;6.40;;;5.77;;
14139;SDS011;7150;53.514;9.988;2022-09-24T05:40:13;8.13;;;6.37;;
14139;SDS011;7150;53.514;9.988;2022-09-24T05:43:02;8.67;;;6.97;;
14139;SDS011;7150;53.514;9.988;2022-09-24T05:45:28;7.27;;;5.97;;
14139;SDS011;7150;53.514;9.988;2022-09-24T05:47:54;7.40;;;5.83;;
14139;SDS011;7150;53.514;9.988;2022-09-24T05:50:20;7.03;;;6.13;;
14139;SDS011;7150;53.514;9.988;2022-09-24T05:52:45;8.87;;;6.70;;
14139;SDS011;7150;53.514;9.988;2022-09-24T05:55:11;9.67;;;7.00;;
14139;SDS011;7150;53.514;9.988;2022-09-24T05:57:36;11.47;;;7.50;;
14139;SDS011;7150;53.514;9.988;2022-09-24T06:00:03;9.83;;;7.53;;
14139;SDS011;7150;53.514;9.988;2022-09-24T06:02:30;12.07;;;8.13;;
14139;SDS011;7150;53.514;9.988;2022-09-24T06:04:56;10.67;;;8.27;;
14139;SDS011;7150;53.514;9.988;2022-09-24T06:07:21;13.57;;;9.83;;
14139;SDS011;7150;53.514;9.988;2022-09-24T06:09:47;12.57;;;9.33;;
14139;SDS011;7150;53.514;9.988;2022-09-24T06:12:13;13.90;;;8.50;;
14139;SDS011;7150;53.514;9.988;2022-09-24T06:14:38;12.23;;;9.07;;
14139;SDS011;7150;53.514;9.988;2022-09-24T06:17:06;12.17;;;9.00;;
14139;SDS011;7150;53.514;9.988;2022-09-24T06:19:32;11.70;;;8.93;;
14139;SDS011;7150;53.514;9.988;2022-09-24T06:21:58;14.50;;;9.23;;
14139;SDS011;7150;53.514;9.988;2022-09-24T06:24:24;12.23;;;9.17;;
14139;SDS011;7150;53.514;9.988;2022-09-24T06:26:49;12.27;;;9.47;;
14139;SDS011;7150;53.514;9.988;2022-09-24T06:29:15;12.73;;;8.43;;
14139;SDS011;7150;53.514;9.988;2022-09-24T06:31:41;12.43;;;9.37;;
14139;SDS011;7150;53.514;9.988;2022-09-24T06:34:08;11.53;;;8.30;;
14139;SDS011;7150;53.514;9.988;2022-09-24T06:36:33;12.10;;;8.97;;
14139;SDS011;7150;53.514;9.988;2022-09-24T06:38:59;12.17;;;8.87;;
14139;SDS011;7150;53.514;9.988;2022-09-24T06:41:25;15.53;;;10.57;;
14139;SDS011;7150;53.514;9.988;2022-09-24T06:43:52;13.73;;;9.33;;
14139;SDS011;7150;53.514;9.988;2022-09-24T06:46:18;13.30;;;10.07;;
14139;SDS011;7150;53.514;9.988;2022-09-24T06:48:44;11.57;;;9.30;;
14139;SDS011;7150;53.514;9.988;2022-09-24T06:51:11;11.23;;;8.47;;
14139;SDS011;7150;53.514;9.988;2022-09-24T06:53:37;13.13;;;8.97;;
14139;SDS011;7150;53.514;9.988;2022-09-24T06:56:02;10.50;;;7.83;;
14139;SDS011;7150;53.514;9.988;2022-09-24T06:58:28;12.73;;;9.17;;
14139;SDS011;7150;53.514;9.988;2022-09-24T07:00:55;10.73;;;8.53;;
14139;SDS011;7150;53.514;9.988;2022-09-24T07:03:22;11.60;;;8.33;;
14139;SDS011;7150;53.514;9.988;2022-09-24T07:05:49;12.93;;;8.63;;
14139;SDS011;7150;53.514;9.988;2022-09-24T07:08:15;9.87;;;7.40;;
14139;SDS011;7150;53.514;9.988;2022-09-24T07:10:42;13.30;;;8.17;;
14139;SDS011;7150;53.514;9.988;2022-09-24T07:13:08;9.77;;;7.00;;
14139;SDS011;7150;53.514;9.988;2022-09-24T07:15:35;11.07;;;7.23;;
14139;SDS011;7150;53.514;9.988;2022-09-24T07:18:00;8.90;;;7.53;;
14139;SDS011;7150;53.514;9.988;2022-09-24T07:20:26;9.83;;;6.70;;
14139;SDS011;7150;53.514;9.988;2022-09-24T07:22:52;10.07;;;7.30;;
14139;SDS011;7150;53.514;9.988;2022-09-24T07:25:19;10.93;;;7.57;;
14139;SDS011;7150;53.514;9.988;2022-09-24T07:27:44;9.73;;;7.40;;
14139;SDS011;7150;53.514;9.988;2022-09-24T07:30:10;9.20;;;7.67;;
14139;SDS011;7150;53.514;9.988;2022-09-24T07:32:36;9.47;;;6.90;;
14139;SDS011;7150;53.514;9.988;2022-09-24T07:35:02;9.20;;;6.90;;
14139;SDS011;7150;53.514;9.988;2022-09-24T07:37:28;7.87;;;6.50;;
14139;SDS011;7150;53.514;9.988;2022-09-24T07:39:57;9.33;;;6.67;;
14139;SDS011;7150;53.514;9.988;2022-09-24T07:42:23;11.67;;;7.30;;
14139;SDS011;7150;53.514;9.988;2022-09-24T07:44:50;8.80;;;7.20;;
14139;SDS011;7150;53.514;9.988;2022-09-24T07:47:15;9.77;;;6.87;;
14139;SDS011;7150;53.514;9.988;2022-09-24T07:49:42;10.53;;;7.47;;
14139;SDS011;7150;53.514;9.988;2022-09-24T07:52:08;9.47;;;7.37;;
14139;SDS011;7150;53.514;9.988;2022-09-24T07:54:34;9.50;;;6.97;;
14139;SDS011;7150;53.514;9.988;2022-09-24T07:57:00;8.50;;;6.20;;
14139;SDS011;7150;53.514;9.988;2022-09-24T07:59:26;8.77;;;7.17;;
14139;SDS011;7150;53.514;9.988;2022-09-24T08:01:52;8.67;;;6.53;;
14139;SDS011;7150;53.514;9.988;2022-09-24T08:04:18;9.10;;;7.13;;
14139;SDS011;7150;53.514;9.988;2022-09-24T08:06:43;8.13;;;6.60;;
14139;SDS011;7150;53.514;9.988;2022-09-24T08:09:09;9.60;;;7.57;;
14139;SDS011;7150;53.514;9.988;2022-09-24T08:11:35;10.20;;;7.60;;
14139;SDS011;7150;53.514;9.988;2022-09-24T08:14:01;10.17;;;7.50;;
14139;SDS011;7150;53.514;9.988;2022-09-24T08:16:27;9.27;;;6.40;;
14139;SDS011;7150;53.514;9.988;2022-09-24T08:18:53;10.63;;;7.63;;
14139;SDS011;7150;53.514;9.988;2022-09-24T08:21:19;9.20;;;7.30;;
14139;SDS011;7150;53.514;9.988;2022-09-24T08:23:45;9.17;;;6.93;;
14139;SDS011;7150;53.514;9.988;2022-09-24T08:26:11;10.47;;;6.97;;
14139;SDS011;7150;53.514;9.988;2022-09-24T08:28:38;10.40;;;7.73;;
14139;SDS011;7150;53.514;9.988;2022-09-24T08:31:07;9.67;;;6.90;;
14139;SDS011;7150;53.514;9.988;2022-09-24T08:33:36;10.70;;;7.67;;
14139;SDS011;7150;53.514;9.988;2022-09-24T08:36:03;10.03;;;7.73;;
14139;SDS011;7150;53.514;9.988;2022-09-24T08:38:31;10.47;;;6.83;;
14139;SDS011;7150;53.514;9.988;2022-09-24T08:46:29;11.07;;;7.87;;
14139;SDS011;7150;53.514;9.988;2022-09-24T08:49:37;10.00;;;7.73;;
14139;SDS011;7150;53.514;9.988;2022-09-24T08:55:09;11.57;;;8.30;;
14139;SDS011;7150;53.514;9.988;2022-09-24T08:58:25;12.03;;;8.60;;
14139;SDS011;7150;53.514;9.988;2022-09-24T09:00:34;10.23;;;7.60;;
14139;SDS011;7150;53.514;9.988;2022-09-24T09:03:20;9.67;;;7.47;;
14139;SDS011;7150;53.514;9.988;2022-09-24T09:05:56;10.30;;;7.60;;
14139;SDS011;7150;53.514;9.988;2022-09-24T09:08:39;10.67;;;7.70;;
14139;SDS011;7150;53.514;9.988;2022-09-24T09:11:27;9.77;;;7.97;;
14139;SDS011;7150;53.514;9.988;2022-09-24T09:14:03;10.40;;;7.40;;
14139;SDS011;7150;53.514;9.988;2022-09-24T09:19:15;11.50;;;8.33;;
14139;SDS011;7150;53.514;9.988;2022-09-24T09:21:59;11.03;;;8.10;;
14139;SDS011;7150;53.514;9.988;2022-09-24T09:24:51;12.20;;;8.17;;
14139;SDS011;7150;53.514;9.988;2022-09-24T09:27:19;10.57;;;7.80;;
14139;SDS011;7150;53.514;9.988;2022-09-24T09:29:55;11.73;;;7.97;;
14139;SDS011;7150;53.514;9.988;2022-09-24T09:35:16;10.93;;;7.80;;
14139;SDS011;7150;53.514;9.988;2022-09-24T09:37:48;9.13;;;7.33;;
14139;SDS011;7150;53.514;9.988;2022-09-24T09:40:28;10.10;;;7.33;;
14139;SDS011;7150;53.514;9.988;2022-09-24T09:43:07;10.40;;;7.90;;
14139;SDS011;7150;53.514;9.988;2022-09-24T09:45:42;12.30;;;8.40;;
14139;SDS011;7150;53.514;9.988;2022-09-24T09:51:41;9.73;;;7.43;;
14139;SDS011;7150;53.514;9.988;2022-09-24T09:54:08;9.80;;;7.33;;
14139;SDS011;7150;53.514;9.988;2022-09-24T09:56:43;11.57;;;7.83;;
14139;SDS011;7150;53.514;9.988;2022-09-24T10:01:40;11.57;;;8.30;;
14139;SDS011;7150;53.514;9.988;2022-09-24T10:07:11;11.50;;;8.03;;
14139;SDS011;7150;53.514;9.988;2022-09-24T10:09:39;12.03;;;8.00;;
14139;SDS011;7150;53.514;9.988;2022-09-24T10:12:07;11.80;;;8.13;;
14139;SDS011;7150;53.514;9.988;2022-09-24T10:14:38;12.67;;;8.90;;
14139;SDS011;7150;53.514;9.988;2022-09-24T10:17:04;13.90;;;8.80;;
14139;SDS011;7150;53.514;9.988;2022-09-24T10:19:31;12.50;;;8.37;;
14139;SDS011;7150;53.514;9.988;2022-09-24T10:22:07;13.50;;;9.43;;
14139;SDS011;7150;53.514;9.988;2022-09-24T10:24:45;13.37;;;9.43;;
14139;SDS011;7150;53.514;9.988;2022-09-24T10:27:11;14.30;;;9.00;;
14139;SDS011;7150;53.514;9.988;2022-09-24T10:29:38;10.93;;;7.33;;
14139;SDS011;7150;53.514;9.988;2022-09-24T10:32:25;11.17;;;8.10;;
14139;SDS011;7150;53.514;9.988;2022-09-24T10:34:54;12.10;;;9.00;;
14139;SDS011;7150;53.514;9.988;2022-09-24T10:37:21;12.03;;;8.60;;
14139;SDS011;7150;53.514;9.988;2022-09-24T10:42:39;12.10;;;8.67;;
14139;SDS011;7150;53.514;9.988;2022-09-24T10:45:08;11.63;;;8.67;;
14139;SDS011;7150;53.514;9.988;2022-09-24T10:47:44;13.73;;;9.30;;
14139;SDS011;7150;53.514;9.988;2022-09-24T10:50:42;13.47;;;9.30;;
14139;SDS011;7150;53.514;9.988;2022-09-24T11:01:53;11.30;;;8.23;;
14139;SDS011;7150;53.514;9.988;2022-09-24T11:04:55;12.77;;;8.60;;
14139;SDS011;7150;53.514;9.988;2022-09-24T11:07:51;12.73;;;8.37;;
14139;SDS011;7150;53.514;9.988;2022-09-24T11:10:33;12.60;;;9.00;;
14139;SDS011;7150;53.514;9.988;2022-09-24T11:19:06;13.57;;;8.70;;
14139;SDS011;7150;53.514;9.988;2022-09-24T11:21:54;13.53;;;9.60;;
14139;SDS011;7150;53.514;9.988;2022-09-24T11:24:51;13.87;;;9.03;;
14139;SDS011;7150;53.514;9.988;2022-09-24T11:30:11;16.27;;;9.27;;
14139;SDS011;7150;53.514;9.988;2022-09-24T11:32:57;13.07;;;9.23;;
14139;SDS011;7150;53.514;9.988;2022-09-24T11:35:33;14.73;;;9.63;;
14139;SDS011;7150;53.514;9.988;2022-09-24T11:38:42;12.60;;;9.43;;
14139;SDS011;7150;53.514;9.988;2022-09-24T11:44:39;12.97;;;9.13;;
14139;SDS011;7150;53.514;9.988;2022-09-24T11:47:17;14.70;;;9.70;;
14139;SDS011;7150;53.514;9.988;2022-09-24T11:53:00;12.03;;;9.50;;
14139;SDS011;7150;53.514;9.988;2022-09-24T11:58:33;14.67;;;9.53;;
14139;SDS011;7150;53.514;9.988;2022-09-24T12:01:04;11.63;;;8.77;;
14139;SDS011;7150;53.514;9.988;2022-09-24T12:03:44;13.70;;;9.60;;
14139;SDS011;7150;53.514;9.988;2022-09-24T12:11:50;11.47;;;8.57;;
14139;SDS011;7150;53.514;9.988;2022-09-24T12:14:52;12.93;;;8.87;;
14139;SDS011;7150;53.514;9.988;2022-09-24T12:17:24;13.33;;;9.13;;
14139;SDS011;7150;53.514;9.988;2022-09-24T12:22:49;14.23;;;10.00;;
14139;SDS011;7150;53.514;9.988;2022-09-24T12:25:23;12.40;;;9.43;;
14139;SDS011;7150;53.514;9.988;2022-09-24T12:27:51;13.07;;;9.43;;
14139;SDS011;7150;53.514;9.988;2022-09-24T12:38:46;12.90;;;8.97;;
14139;SDS011;7150;53.514;9.988;2022-09-24T12:49:49;12.73;;;9.27;;
14139;SDS011;7150;53.514;9.988;2022-09-24T12:52:14;12.50;;;8.60;;
14139;SDS011;7150;53.514;9.988;2022-09-24T12:54:53;11.03;;;7.73;;
14139;SDS011;7150;53.514;9.988;2022-09-24T12:57:24;15.33;;;9.67;;
14139;SDS011;7150;53.514;9.988;2022-09-24T12:59:58;10.97;;;7.90;;
14139;SDS011;7150;53.514;9.988;2022-09-24T13:02:44;11.30;;;7.83;;
14139;SDS011;7150;53.514;9.988;2022-09-24T13:05:15;10.70;;;6.97;;
14139;SDS011;7150;53.514;9.988;2022-09-24T13:08:21;12.17;;;8.73;;
14139;SDS011;7150;53.514;9.988;2022-09-24T13:10:53;12.07;;;8.87;;
14139;SDS011;7150;53.514;9.988;2022-09-24T13:13:23;11.70;;;8.10;;
14139;SDS011;7150;53.514;9.988;2022-09-24T13:18:40;12.40;;;9.10;;
14139;SDS011;7150;53.514;9.988;2022-09-24T13:21:08;13.13;;;8.77;;
14139;SDS011;7150;53.514;9.988;2022-09-24T13:23:46;12.40;;;9.13;;
14139;SDS011;7150;53.514;9.988;2022-09-24T13:26:34;11.83;;;8.87;;
14139;SDS011;7150;53.514;9.988;2022-09-24T13:29:03;12.60;;;8.63;;
14139;SDS011;7150;53.514;9.988;2022-09-24T13:31:32;11.53;;;8.83;;
14139;SDS011;7150;53.514;9.988;2022-09-24T13:36:51;13.97;;;9.97;;
14139;SDS011;7150;53.514;9.988;2022-09-24T13:42:16;13.70;;;10.47;;
14139;SDS011;7150;53.514;9.988;2022-09-24T13:44:51;13.93;;;10.23;;
14139;SDS011;7150;53.514;9.988;2022-09-24T13:47:32;13.40;;;10.07;;
14139;SDS011;7150;53.514;9.988;2022-09-24T13:55:17;14.33;;;8.93;;
14139;SDS011;7150;53.514;9.988;2022-09-24T13:57:58;13.37;;;9.70;;
14139;SDS011;7150;53.514;9.988;2022-09-24T14:00:28;11.10;;;8.60;;
14139;SDS011;7150;53.514;9.988;2022-09-24T14:05:40;12.67;;;9.27;;
14139;SDS011;7150;53.514;9.988;2022-09-24T14:08:06;11.80;;;8.40;;
14139;SDS011;7150;53.514;9.988;2022-09-24T14:10:36;11.57;;;8.77;;
14139;SDS011;7150;53.514;9.988;2022-09-24T14:16:06;13.33;;;8.33;;
14139;SDS011;7150;53.514;9.988;2022-09-24T14:18:33;13.60;;;9.50;;
14139;SDS011;7150;53.514;9.988;2022-09-24T14:21:06;14.73;;;9.97;;
14139;SDS011;7150;53.514;9.988;2022-09-24T14:23:40;9.73;;;8.03;;
14139;SDS011;7150;53.514;9.988;2022-09-24T14:29:45;14.03;;;9.97;;
14139;SDS011;7150;53.514;9.988;2022-09-24T14:32:06;15.93;;;10.33;;
14139;SDS011;7150;53.514;9.988;2022-09-24T14:34:44;13.10;;;8.97;;
14139;SDS011;7150;53.514;9.988;2022-09-24T14:37:17;11.63;;;8.60;;
14139;SDS011;7150;53.514;9.988;2022-09-24T14:40:11;11.30;;;8.13;;
14139;SDS011;7150;53.514;9.988;2022-09-24T14:42:41;10.53;;;7.97;;
14139;SDS011;7150;53.514;9.988;2022-09-24T14:45:15;13.40;;;9.87;;
14139;SDS011;7150;53.514;9.988;2022-09-24T14:47:44;13.23;;;8.63;;
14139;SDS011;7150;53.514;9.988;2022-09-24T14:50:25;13.03;;;9.53;;
14139;SDS011;7150;53.514;9.988;2022-09-24T14:52:54;13.37;;;9.53;;
14139;SDS011;7150;53.514;9.988;2022-09-24T14:55:35;10.40;;;8.10;;
14139;SDS011;7150;53.514;9.988;2022-09-24T14:58:02;12.60;;;8.93;;
14139;SDS011;7150;53.514;9.988;2022-09-24T15:00:29;12.13;;;8.27;;
14139;SDS011;7150;53.514;9.988;2022-09-24T15:05:28;9.87;;;7.40;;
14139;SDS011;7150;53.514;9.988;2022-09-24T15:08:08;11.47;;;8.10;;
14139;SDS011;7150;53.514;9.988;2022-09-24T15:10:58;12.23;;;9.00;;
14139;SDS011;7150;53.514;9.988;2022-09-24T15:13:30;10.00;;;7.23;;
14139;SDS011;7150;53.514;9.988;2022-09-24T15:16:04;10.50;;;7.47;;
14139;SDS011;7150;53.514;9.988;2022-09-24T15:18:41;10.93;;;7.87;;
14139;SDS011;7150;53.514;9.988;2022-09-24T15:21:06;13.13;;;9.37;;
14139;SDS011;7150;53.514;9.988;2022-09-24T15:23:34;11.50;;;8.37;;
14139;SDS011;7150;53.514;9.988;2022-09-24T15:26:00;10.57;;;7.63;;
14139;SDS011;7150;53.514;9.988;2022-09-24T15:28:26;11.63;;;7.93;;
14139;SDS011;7150;53.514;9.988;2022-09-24T15:30:54;12.77;;;8.80;;
14139;SDS011;7150;53.514;9.988;2022-09-24T15:33:20;13.00;;;9.40;;
14139;SDS011;7150;53.514;9.988;2022-09-24T15:35:45;12.43;;;9.07;;
14139;SDS011;7150;53.514;9.988;2022-09-24T15:38:15;11.50;;;8.33;;
14139;SDS011;7150;53.514;9.988;2022-09-24T15:40:42;12.43;;;9.10;;
14139;SDS011;7150;53.514;9.988;2022-09-24T15:43:21;14.13;;;9.40;;
14139;SDS011;7150;53.514;9.988;2022-09-24T15:45:48;11.10;;;8.77;;
14139;SDS011;7150;53.514;9.988;2022-09-24T15:48:14;14.10;;;10.13;;
14139;SDS011;7150;53.514;9.988;2022-09-24T15:50:39;12.00;;;8.83;;
14139;SDS011;7150;53.514;9.988;2022-09-24T15:53:06;11.03;;;8.20;;
14139;SDS011;7150;53.514;9.988;2022-09-24T15:55:40;17.10;;;10.37;;
14139;SDS011;7150;53.514;9.988;2022-09-24T15:58:09;13.10;;;9.20;;
14139;SDS011;7150;53.514;9.988;2022-09-24T16:00:37;12.70;;;9.40;;
14139;SDS011;7150;53.514;9.988;2022-09-24T16:03:02;14.87;;;9.90;;
14139;SDS011;7150;53.514;9.988;2022-09-24T16:05:28;14.53;;;9.03;;
14139;SDS011;7150;53.514;9.988;2022-09-24T16:07:53;12.23;;;8.77;;
14139;SDS011;7150;53.514;9.988;2022-09-24T16:10:19;11.40;;;8.97;;
14139;SDS011;7150;53.514;9.988;2022-09-24T16:12:45;12.90;;;9.57;;
14139;SDS011;7150;53.514;9.988;2022-09-24T16:15:11;10.37;;;7.27;;
14139;SDS011;7150;53.514;9.988;2022-09-24T16:17:37;12.33;;;9.73;;
14139;SDS011;7150;53.514;9.988;2022-09-24T16:20:03;11.87;;;8.97;;
14139;SDS011;7150;53.514;9.988;2022-09-24T16:22:29;13.07;;;8.50;;
14139;SDS011;7150;53.514;9.988;2022-09-24T16:24:54;15.10;;;9.60;;
14139;SDS011;7150;53.514;9.988;2022-09-24T16:27:20;13.27;;;9.77;;
14139;SDS011;7150;53.514;9.988;2022-09-24T16:29:46;13.87;;;10.00;;
14139;SDS011;7150;53.514;9.988;2022-09-24T16:32:12;16.37;;;11.07;;
14139;SDS011;7150;53.514;9.988;2022-09-24T16:34:38;17.03;;;11.50;;
14139;SDS011;7150;53.514;9.988;2022-09-24T16:37:04;12.03;;;9.40;;
14139;SDS011;7150;53.514;9.988;2022-09-24T16:39:30;14.87;;;9.70;;
14139;SDS011;7150;53.514;9.988;2022-09-24T16:41:57;15.37;;;10.07;;
14139;SDS011;7150;53.514;9.988;2022-09-24T16:44:22;12.40;;;9.67;;
14139;SDS011;7150;53.514;9.988;2022-09-24T16:46:48;13.93;;;10.23;;
14139;SDS011;7150;53.514;9.988;2022-09-24T16:49:13;13.10;;;8.67;;
14139;SDS011;7150;53.514;9.988;2022-09-24T16:51:39;14.10;;;8.67;;
14139;SDS011;7150;53.514;9.988;2022-09-24T16:54:04;12.87;;;9.33;;
14139;SDS011;7150;53.514;9.988;2022-09-24T16:56:30;11.33;;;8.30;;
14139;SDS011;7150;53.514;9.988;2022-09-24T16:58:56;15.87;;;11.33;;
14139;SDS011;7150;53.514;9.988;2022-09-24T17:01:21;16.10;;;11.13;;
14139;SDS011;7150;53.514;9.988;2022-09-24T17:03:51;15.20;;;10.73;;
14139;SDS011;7150;53.514;9.988;2022-09-24T17:06:19;15.57;;;11.40;;
14139;SDS011;7150;53.514;9.988;2022-09-24T17:08:50;14.47;;;10.47;;
14139;SDS011;7150;53.514;9.988;2022-09-24T17:11:35;13.10;;;9.13;;